sensor_id;sensor_type;location;lat;lon;timestamp;pressure;altitude;pressure_sealevel;temperature;humidity
70976;BME280;58635;51.198;6.010;2022-11-25T00:01:29;100852.66;;;12.09;60.82
70976;BME280;58635;51.198;6.010;2022-11-25T00:03:56;100852.06;;;12.13;60.83
70976;BME280;58635;51.198;6.010;2022-11-25T00:06:22;100845.66;;;12.16;60.97
70976;BME280;58635;51.198;6.010;2022-11-25T00:08:52;100838.28;;;12.19;60.97
70976;BME280;58635;51.198;6.010;2022-11-25T00:11:18;100844.06;;;12.21;60.98
70976;BME280;58635;51.198;6.010;2022-11-25T00:13:45;100833.09;;;12.26;61.17
70976;BME280;58635;51.198;6.010;2022-11-25T00:16:13;100833.66;;;12.28;61.08
70976;BME280;58635;51.198;6.010;2022-11-25T00:18:43;100824.50;;;12.32;61.34
70976;BME280;58635;51.198;6.010;2022-11-25T00:21:12;100825.09;;;12.34;61.28
70976;BME280;58635;51.198;6.010;2022-11-25T00:23:38;100822.28;;;12.36;61.02
70976;BME280;58635;51.198;6.010;2022-11-25T00:26:14;100814.88;;;12.39;61.39
70976;BME280;58635;51.198;6.010;2022-11-25T00:28:42;100817.06;;;12.42;61.13
70976;BME280;58635;51.198;6.010;2022-11-25T00:31:10;100823.66;;;12.45;61.34
70976;BME280;58635;51.198;6.010;2022-11-25T00:33:36;100813.09;;;12.46;61.22
70976;BME280;58635;51.198;6.010;2022-11-25T00:36:03;100816.84;;;12.50;61.40
70976;BME280;58635;51.198;6.010;2022-11-25T00:38:29;100816.84;;;12.50;61.44
70976;BME280;58635;51.198;6.010;2022-11-25T00:40:54;100815.84;;;12.51;61.28
70976;BME280;58635;51.198;6.010;2022-11-25T00:43:39;100807.66;;;12.54;61.44
70976;BME280;58635;51.198;6.010;2022-11-25T00:46:23;100805.66;;;12.56;61.25
70976;BME280;58635;51.198;6.010;2022-11-25T00:48:48;100808.06;;;12.58;61.44
70976;BME280;58635;51.198;6.010;2022-11-25T00:51:13;100804.03;;;12.62;61.42
70976;BME280;58635;51.198;6.010;2022-11-25T00:53:39;100797.63;;;12.65;61.53
70976;BME280;58635;51.198;6.010;2022-11-25T00:56:04;100796.84;;;12.64;61.39
70976;BME280;58635;51.198;6.010;2022-11-25T00:58:43;100807.22;;;12.64;61.50
70976;BME280;58635;51.198;6.010;2022-11-25T01:01:09;100810.59;;;12.65;61.53
70976;BME280;58635;51.198;6.010;2022-11-25T01:03:36;100802.03;;;12.64;61.65
70976;BME280;58635;51.198;6.010;2022-11-25T01:06:03;100801.63;;;12.67;61.52
70976;BME280;58635;51.198;6.010;2022-11-25T01:08:29;100803.41;;;12.67;61.81
70976;BME280;58635;51.198;6.010;2022-11-25T01:11:03;100804.59;;;12.71;61.60
70976;BME280;58635;51.198;6.010;2022-11-25T01:13:29;100807.00;;;12.72;61.80
70976;BME280;58635;51.198;6.010;2022-11-25T01:15:55;100798.78;;;12.75;61.67
70976;BME280;58635;51.198;6.010;2022-11-25T01:18:20;100797.38;;;12.79;61.58
70976;BME280;58635;51.198;6.010;2022-11-25T01:20:46;100798.78;;;12.82;61.64
70976;BME280;58635;51.198;6.010;2022-11-25T01:23:11;100800.16;;;12.84;61.59
70976;BME280;58635;51.198;6.010;2022-11-25T01:25:38;100796.13;;;12.88;61.67
70976;BME280;58635;51.198;6.010;2022-11-25T01:28:04;100796.75;;;12.91;61.55
70976;BME280;58635;51.198;6.010;2022-11-25T01:30:29;100800.91;;;12.92;61.69
70976;BME280;58635;51.198;6.010;2022-11-25T01:32:55;100796.91;;;12.96;61.68
70976;BME280;58635;51.198;6.010;2022-11-25T01:35:20;100805.06;;;12.99;61.50
70976;BME280;58635;51.198;6.010;2022-11-25T01:37:46;100808.84;;;13.03;61.49
70976;BME280;58635;51.198;6.010;2022-11-25T01:40:11;100812.03;;;13.05;61.39
70976;BME280;58635;51.198;6.010;2022-11-25T01:42:45;100809.81;;;13.09;61.34
70976;BME280;58635;51.198;6.010;2022-11-25T01:47:49;100818.56;;;13.14;61.37
70976;BME280;58635;51.198;6.010;2022-11-25T01:50:17;100819.16;;;13.16;61.28
70976;BME280;58635;51.198;6.010;2022-11-25T01:52:47;100829.16;;;13.20;61.34
70976;BME280;58635;51.198;6.010;2022-11-25T01:55:19;100835.13;;;13.20;61.24
70976;BME280;58635;51.198;6.010;2022-11-25T01:57:50;100832.91;;;13.24;61.23
70976;BME280;58635;51.198;6.010;2022-11-25T02:00:17;100834.50;;;13.25;61.11
70976;BME280;58635;51.198;6.010;2022-11-25T02:02:43;100839.50;;;13.26;61.07
70976;BME280;58635;51.198;6.010;2022-11-25T02:05:12;100843.47;;;13.29;61.13
70976;BME280;58635;51.198;6.010;2022-11-25T02:07:40;100841.69;;;13.29;60.96
70976;BME280;58635;51.198;6.010;2022-11-25T02:10:10;100840.47;;;13.32;60.94
70976;BME280;58635;51.198;6.010;2022-11-25T02:12:39;100848.84;;;13.34;60.99
70976;BME280;58635;51.198;6.010;2022-11-25T02:15:06;100843.84;;;13.32;60.93
70976;BME280;58635;51.198;6.010;2022-11-25T02:17:32;100839.44;;;13.33;61.01
70976;BME280;58635;51.198;6.010;2022-11-25T02:20:05;100839.25;;;13.34;61.08
70976;BME280;58635;51.198;6.010;2022-11-25T02:22:51;100845.00;;;13.36;61.02
70976;BME280;58635;51.198;6.010;2022-11-25T02:25:29;100836.44;;;13.36;60.94
70976;BME280;58635;51.198;6.010;2022-11-25T02:28:08;100832.81;;;13.37;60.74
70976;BME280;58635;51.198;6.010;2022-11-25T02:30:35;100845.81;;;13.37;60.87
70976;BME280;58635;51.198;6.010;2022-11-25T02:33:01;100846.59;;;13.37;60.70
70976;BME280;58635;51.198;6.010;2022-11-25T02:35:27;100843.81;;;13.39;60.83
70976;BME280;58635;51.198;6.010;2022-11-25T02:37:58;100849.81;;;13.39;60.74
70976;BME280;58635;51.198;6.010;2022-11-25T02:40:25;100851.19;;;13.42;60.67
70976;BME280;58635;51.198;6.010;2022-11-25T02:42:52;100854.59;;;13.42;60.78
70976;BME280;58635;51.198;6.010;2022-11-25T02:45:22;100850.19;;;13.43;60.66
70976;BME280;58635;51.198;6.010;2022-11-25T02:47:50;100859.78;;;13.42;60.66
70976;BME280;58635;51.198;6.010;2022-11-25T02:50:15;100864.19;;;13.42;60.68
70976;BME280;58635;51.198;6.010;2022-11-25T02:52:41;100868.38;;;13.43;60.82
70976;BME280;58635;51.198;6.010;2022-11-25T02:55:07;100877.75;;;13.44;61.07
70976;BME280;58635;51.198;6.010;2022-11-25T02:57:32;100868.59;;;13.41;61.54
70976;BME280;58635;51.198;6.010;2022-11-25T02:59:58;100871.38;;;13.40;61.54
70976;BME280;58635;51.198;6.010;2022-11-25T03:02:23;100865.00;;;13.36;62.01
70976;BME280;58635;51.198;6.010;2022-11-25T03:04:48;100876.63;;;13.33;62.40
70976;BME280;58635;51.198;6.010;2022-11-25T03:07:14;100874.22;;;13.32;62.46
70976;BME280;58635;51.198;6.010;2022-11-25T03:09:39;100883.03;;;13.31;62.36
70976;BME280;58635;51.198;6.010;2022-11-25T03:12:05;100890.81;;;13.31;62.68
70976;BME280;58635;51.198;6.010;2022-11-25T03:14:50;100893.41;;;13.31;62.84
70976;BME280;58635;51.198;6.010;2022-11-25T03:17:16;100891.25;;;13.28;62.79
70976;BME280;58635;51.198;6.010;2022-11-25T03:19:41;100899.03;;;13.28;62.92
70976;BME280;58635;51.198;6.010;2022-11-25T03:22:06;100904.63;;;13.25;62.99
70976;BME280;58635;51.198;6.010;2022-11-25T03:24:32;100915.81;;;13.25;63.29
70976;BME280;58635;51.198;6.010;2022-11-25T03:26:58;100925.41;;;13.25;63.21
70976;BME280;58635;51.198;6.010;2022-11-25T03:29:23;100927.81;;;13.26;63.02
70976;BME280;58635;51.198;6.010;2022-11-25T03:31:48;100927.81;;;13.26;62.94
70976;BME280;58635;51.198;6.010;2022-11-25T03:34:14;100920.81;;;13.27;63.15
70976;BME280;58635;51.198;6.010;2022-11-25T03:36:39;100912.25;;;13.26;63.13
70976;BME280;58635;51.198;6.010;2022-11-25T03:39:05;100921.81;;;13.26;62.95
70976;BME280;58635;51.198;6.010;2022-11-25T03:41:30;100931.22;;;13.27;63.16
70976;BME280;58635;51.198;6.010;2022-11-25T03:43:56;100933.41;;;13.23;63.01
70976;BME280;58635;51.198;6.010;2022-11-25T03:46:21;100933.63;;;13.22;62.83
70976;BME280;58635;51.198;6.010;2022-11-25T03:48:46;100928.63;;;13.20;62.86
70976;BME280;58635;51.198;6.010;2022-11-25T03:51:12;100921.63;;;13.21;62.64
70976;BME280;58635;51.198;6.010;2022-11-25T03:53:37;100918.03;;;13.22;62.60
70976;BME280;58635;51.198;6.010;2022-11-25T03:56:03;100913.84;;;13.21;62.51
70976;BME280;58635;51.198;6.010;2022-11-25T03:58:28;100908.66;;;13.21;62.65
70976;BME280;58635;51.198;6.010;2022-11-25T04:00:53;100910.44;;;13.20;62.43
70976;BME280;58635;51.198;6.010;2022-11-25T04:03:19;100891.66;;;13.18;62.74
70976;BME280;58635;51.198;6.010;2022-11-25T04:05:44;100895.47;;;13.15;62.63
70976;BME280;58635;51.198;6.010;2022-11-25T04:08:09;100893.06;;;13.14;62.81
70976;BME280;58635;51.198;6.010;2022-11-25T04:10:35;100903.44;;;13.14;62.74
70976;BME280;58635;51.198;6.010;2022-11-25T04:13:00;100903.66;;;13.12;62.97
70976;BME280;58635;51.198;6.010;2022-11-25T04:15:26;100900.25;;;13.12;62.85
70976;BME280;58635;51.198;6.010;2022-11-25T04:17:51;100880.72;;;13.09;62.99
70976;BME280;58635;51.198;6.010;2022-11-25T04:20:17;100877.53;;;13.07;63.26
70976;BME280;58635;51.198;6.010;2022-11-25T04:22:42;100880.34;;;13.06;63.23
70976;BME280;58635;51.198;6.010;2022-11-25T04:25:08;100883.94;;;13.05;63.32
70976;BME280;58635;51.198;6.010;2022-11-25T04:27:34;100889.34;;;13.03;63.35
70976;BME280;58635;51.198;6.010;2022-11-25T04:29:59;100893.91;;;13.01;63.44
70976;BME280;58635;51.198;6.010;2022-11-25T04:32:25;100920.88;;;13.00;63.51
70976;BME280;58635;51.198;6.010;2022-11-25T04:34:51;100933.28;;;12.98;63.38
70976;BME280;58635;51.198;6.010;2022-11-25T04:37:16;100936.09;;;12.97;63.51
70976;BME280;58635;51.198;6.010;2022-11-25T04:39:42;100933.69;;;12.95;63.38
70976;BME280;58635;51.198;6.010;2022-11-25T04:42:07;100936.50;;;12.94;63.46
70976;BME280;58635;51.198;6.010;2022-11-25T04:44:50;100948.31;;;12.83;63.30
70976;BME280;58635;51.198;6.010;2022-11-25T04:47:16;100960.06;;;12.85;63.35
70976;BME280;58635;51.198;6.010;2022-11-25T04:49:41;100962.69;;;12.85;63.36
70976;BME280;58635;51.198;6.010;2022-11-25T04:52:07;100970.47;;;12.85;63.30
70976;BME280;58635;51.198;6.010;2022-11-25T04:54:32;100981.63;;;12.86;63.49
70976;BME280;58635;51.198;6.010;2022-11-25T04:56:58;100976.88;;;12.83;63.63
70976;BME280;58635;51.198;6.010;2022-11-25T04:59:23;100973.47;;;12.82;63.70
70976;BME280;58635;51.198;6.010;2022-11-25T05:02:08;100981.06;;;12.84;63.55
70976;BME280;58635;51.198;6.010;2022-11-25T05:04:36;100977.66;;;12.83;63.55
70976;BME280;58635;51.198;6.010;2022-11-25T05:07:01;100979.25;;;12.84;63.58
70976;BME280;58635;51.198;6.010;2022-11-25T05:09:26;100979.03;;;12.86;63.63
70976;BME280;58635;51.198;6.010;2022-11-25T05:11:52;100974.66;;;12.86;63.64
70976;BME280;58635;51.198;6.010;2022-11-25T05:14:17;100991.03;;;12.87;63.46
70976;BME280;58635;51.198;6.010;2022-11-25T05:16:43;100987.41;;;12.88;63.47
70976;BME280;58635;51.198;6.010;2022-11-25T05:19:08;100992.63;;;12.88;63.55
70976;BME280;58635;51.198;6.010;2022-11-25T05:21:33;100990.03;;;12.88;63.43
70976;BME280;58635;51.198;6.010;2022-11-25T05:23:59;100993.41;;;12.88;63.55
70976;BME280;58635;51.198;6.010;2022-11-25T05:26:24;100995.00;;;12.89;63.35
70976;BME280;58635;51.198;6.010;2022-11-25T05:28:49;100992.41;;;12.89;63.57
70976;BME280;58635;51.198;6.010;2022-11-25T05:31:15;100987.22;;;12.89;63.40
70976;BME280;58635;51.198;6.010;2022-11-25T05:33:40;100992.63;;;12.88;63.59
70976;BME280;58635;51.198;6.010;2022-11-25T05:36:06;100992.63;;;12.88;63.32
70976;BME280;58635;51.198;6.010;2022-11-25T05:38:31;100992.03;;;12.86;63.45
70976;BME280;58635;51.198;6.010;2022-11-25T05:41:03;100997.00;;;12.87;63.41
70976;BME280;58635;51.198;6.010;2022-11-25T05:43:28;100996.22;;;12.87;63.59
70976;BME280;58635;51.198;6.010;2022-11-25T05:45:54;101007.59;;;12.86;63.40
70976;BME280;58635;51.198;6.010;2022-11-25T05:48:19;101010.19;;;12.86;63.51
70976;BME280;58635;51.198;6.010;2022-11-25T05:50:45;101005.22;;;12.84;63.66
70976;BME280;58635;51.198;6.010;2022-11-25T05:53:10;101009.59;;;12.84;63.37
70976;BME280;58635;51.198;6.010;2022-11-25T05:55:36;101004.63;;;12.82;63.43
70976;BME280;58635;51.198;6.010;2022-11-25T05:58:01;101007.41;;;12.81;63.40
70976;BME280;58635;51.198;6.010;2022-11-25T06:00:28;101014.00;;;12.77;63.59
70976;BME280;58635;51.198;6.010;2022-11-25T06:02:54;101021.59;;;12.72;63.59
70976;BME280;58635;51.198;6.010;2022-11-25T06:05:20;101023.81;;;12.68;63.66
70976;BME280;58635;51.198;6.010;2022-11-25T06:07:45;101028.59;;;12.65;63.76
70976;BME280;58635;51.198;6.010;2022-11-25T06:10:11;101030.00;;;12.61;64.01
70976;BME280;58635;51.198;6.010;2022-11-25T06:12:36;101034.59;;;12.58;64.14
70976;BME280;58635;51.198;6.010;2022-11-25T06:15:02;101033.78;;;12.58;64.08
70976;BME280;58635;51.198;6.010;2022-11-25T06:17:29;101026.22;;;12.56;64.13
70976;BME280;58635;51.198;6.010;2022-11-25T06:19:54;101025.59;;;12.54;64.07
70976;BME280;58635;51.198;6.010;2022-11-25T06:22:19;101029.97;;;12.54;64.01
70976;BME280;58635;51.198;6.010;2022-11-25T06:24:45;101030.19;;;12.52;63.97
70976;BME280;58635;51.198;6.010;2022-11-25T06:27:13;101041.56;;;12.51;64.03
70976;BME280;58635;51.198;6.010;2022-11-25T06:29:39;101040.38;;;12.47;63.77
70976;BME280;58635;51.198;6.010;2022-11-25T06:32:04;101038.97;;;12.45;64.00
70976;BME280;58635;51.198;6.010;2022-11-25T06:34:30;101046.97;;;12.43;64.07
70976;BME280;58635;51.198;6.010;2022-11-25T06:36:55;101047.34;;;12.40;64.19
70976;BME280;58635;51.198;6.010;2022-11-25T06:39:21;101054.53;;;12.38;64.17
70976;BME280;58635;51.198;6.010;2022-11-25T06:41:46;101061.72;;;12.36;64.13
70976;BME280;58635;51.198;6.010;2022-11-25T06:44:12;101059.31;;;12.35;64.35
70976;BME280;58635;51.198;6.010;2022-11-25T06:46:38;101065.72;;;12.32;64.42
70976;BME280;58635;51.198;6.010;2022-11-25T06:49:03;101068.69;;;12.29;64.50
70976;BME280;58635;51.198;6.010;2022-11-25T06:51:29;101067.06;;;12.28;64.56
70976;BME280;58635;51.198;6.010;2022-11-25T06:53:55;101069.06;;;12.26;64.56
70976;BME280;58635;51.198;6.010;2022-11-25T06:56:23;101071.88;;;12.24;64.46
70976;BME280;58635;51.198;6.010;2022-11-25T06:58:49;101080.44;;;12.25;64.58
70976;BME280;58635;51.198;6.010;2022-11-25T07:01:23;101082.44;;;12.23;64.50
70976;BME280;58635;51.198;6.010;2022-11-25T07:03:52;101079.25;;;12.21;64.39
70976;BME280;58635;51.198;6.010;2022-11-25T07:06:19;101082.84;;;12.20;64.41
70976;BME280;58635;51.198;6.010;2022-11-25T07:08:45;101092.59;;;12.18;64.52
70976;BME280;58635;51.198;6.010;2022-11-25T07:11:16;101094.97;;;12.19;64.62
70976;BME280;58635;51.198;6.010;2022-11-25T07:13:42;101099.56;;;12.17;64.34
70976;BME280;58635;51.198;6.010;2022-11-25T07:16:09;101104.16;;;12.15;64.28
70976;BME280;58635;51.198;6.010;2022-11-25T07:18:36;101107.94;;;12.13;64.59
70976;BME280;58635;51.198;6.010;2022-11-25T07:21:07;101127.88;;;12.12;64.31
70976;BME280;58635;51.198;6.010;2022-11-25T07:23:33;101126.28;;;12.11;64.30
70976;BME280;58635;51.198;6.010;2022-11-25T07:28:27;101136.06;;;12.09;64.51
70976;BME280;58635;51.198;6.010;2022-11-25T07:30:53;101136.44;;;12.06;64.55
70976;BME280;58635;51.198;6.010;2022-11-25T07:33:18;101134.03;;;12.05;64.53
70976;BME280;58635;51.198;6.010;2022-11-25T07:35:44;101143.59;;;12.04;64.56
70976;BME280;58635;51.198;6.010;2022-11-25T07:38:09;101145.81;;;12.07;64.45
70976;BME280;58635;51.198;6.010;2022-11-25T07:40:34;101154.56;;;12.06;64.51
70976;BME280;58635;51.198;6.010;2022-11-25T07:43:00;101157.97;;;12.07;64.73
70976;BME280;58635;51.198;6.010;2022-11-25T07:45:25;101159.59;;;12.08;64.32
70976;BME280;58635;51.198;6.010;2022-11-25T07:47:51;101164.78;;;12.08;64.72
70976;BME280;58635;51.198;6.010;2022-11-25T07:50:16;101169.13;;;12.07;64.49
70976;BME280;58635;51.198;6.010;2022-11-25T07:52:41;101177.75;;;12.08;64.72
70976;BME280;58635;51.198;6.010;2022-11-25T07:55:07;101181.13;;;12.08;64.58
70976;BME280;58635;51.198;6.010;2022-11-25T07:57:33;101186.13;;;12.10;64.69
70976;BME280;58635;51.198;6.010;2022-11-25T07:59:59;101193.09;;;12.09;64.70
70976;BME280;58635;51.198;6.010;2022-11-25T08:02:24;101190.88;;;12.06;64.89
70976;BME280;58635;51.198;6.010;2022-11-25T08:04:49;101186.31;;;12.08;64.79
70976;BME280;58635;51.198;6.010;2022-11-25T08:07:15;101195.31;;;12.12;64.67
70976;BME280;58635;51.198;6.010;2022-11-25T08:09:40;101189.91;;;12.14;64.86
70976;BME280;58635;51.198;6.010;2022-11-25T08:12:06;101203.69;;;12.14;64.84
70976;BME280;58635;51.198;6.010;2022-11-25T08:14:31;101201.28;;;12.13;64.82
70976;BME280;58635;51.198;6.010;2022-11-25T08:16:56;101197.09;;;12.12;64.92
70976;BME280;58635;51.198;6.010;2022-11-25T08:19:22;101209.88;;;12.13;64.82
70976;BME280;58635;51.198;6.010;2022-11-25T08:21:49;101205.88;;;12.17;64.88
70976;BME280;58635;51.198;6.010;2022-11-25T08:24:17;101213.09;;;12.22;65.22
70976;BME280;58635;51.198;6.010;2022-11-25T08:26:42;101214.31;;;12.26;65.01
70976;BME280;58635;51.198;6.010;2022-11-25T08:29:12;101216.31;;;12.30;65.08
70976;BME280;58635;51.198;6.010;2022-11-25T08:31:38;101225.13;;;12.36;64.84
70976;BME280;58635;51.198;6.010;2022-11-25T08:34:06;101233.31;;;12.40;65.03
70976;BME280;58635;51.198;6.010;2022-11-25T08:36:32;101229.53;;;12.42;64.79
70976;BME280;58635;51.198;6.010;2022-11-25T08:39:00;101229.16;;;12.45;64.83
70976;BME280;58635;51.198;6.010;2022-11-25T08:41:32;101233.34;;;12.46;64.84
70976;BME280;58635;51.198;6.010;2022-11-25T08:44:00;101230.75;;;12.46;64.73
70976;BME280;58635;51.198;6.010;2022-11-25T08:46:29;101232.94;;;12.49;64.63
70976;BME280;58635;51.198;6.010;2022-11-25T08:48:55;101239.94;;;12.49;64.91
70976;BME280;58635;51.198;6.010;2022-11-25T08:51:24;101242.72;;;12.47;64.85
70976;BME280;58635;51.198;6.010;2022-11-25T08:53:50;101241.31;;;12.45;65.14
70976;BME280;58635;51.198;6.010;2022-11-25T08:56:17;101249.91;;;12.45;65.23
70976;BME280;58635;51.198;6.010;2022-11-25T08:58:42;101248.72;;;12.48;65.12
70976;BME280;58635;51.198;6.010;2022-11-25T09:01:09;101248.13;;;12.52;64.87
70976;BME280;58635;51.198;6.010;2022-11-25T09:03:38;101250.16;;;12.57;64.81
70976;BME280;58635;51.198;6.010;2022-11-25T09:06:04;101254.16;;;12.59;64.75
70976;BME280;58635;51.198;6.010;2022-11-25T09:08:31;101263.53;;;12.61;64.78
70976;BME280;58635;51.198;6.010;2022-11-25T09:10:58;101271.31;;;12.61;64.68
70976;BME280;58635;51.198;6.010;2022-11-25T09:13:23;101265.13;;;12.62;64.70
70976;BME280;58635;51.198;6.010;2022-11-25T09:15:49;101271.13;;;12.62;64.82
70976;BME280;58635;51.198;6.010;2022-11-25T09:18:14;101269.91;;;12.65;64.49
70976;BME280;58635;51.198;6.010;2022-11-25T09:20:41;101273.94;;;12.67;64.58
70976;BME280;58635;51.198;6.010;2022-11-25T09:23:07;101279.13;;;12.67;64.82
70976;BME280;58635;51.198;6.010;2022-11-25T09:25:33;101286.72;;;12.69;64.63
70976;BME280;58635;51.198;6.010;2022-11-25T09:27:59;101288.91;;;12.72;64.57
70976;BME280;58635;51.198;6.010;2022-11-25T09:30:25;101289.53;;;12.74;64.47
70976;BME280;58635;51.198;6.010;2022-11-25T09:32:52;101303.91;;;12.76;64.59
70976;BME280;58635;51.198;6.010;2022-11-25T09:35:19;101300.13;;;12.79;64.50
70976;BME280;58635;51.198;6.010;2022-11-25T09:37:44;101299.94;;;12.80;64.40
70976;BME280;58635;51.198;6.010;2022-11-25T09:40:27;101296.94;;;12.83;64.42
70976;BME280;58635;51.198;6.010;2022-11-25T09:43:06;101306.72;;;12.88;64.20
70976;BME280;58635;51.198;6.010;2022-11-25T09:49:02;101309.94;;;12.90;64.24
70976;BME280;58635;51.198;6.010;2022-11-25T09:51:51;101313.16;;;12.99;64.30
70976;BME280;58635;51.198;6.010;2022-11-25T09:54:25;101321.97;;;13.04;64.17
70976;BME280;58635;51.198;6.010;2022-11-25T09:57:02;101326.97;;;13.12;63.96
70976;BME280;58635;51.198;6.010;2022-11-25T09:59:34;101336.00;;;13.16;63.87
70976;BME280;58635;51.198;6.010;2022-11-25T10:05:19;101343.81;;;13.23;63.61
70976;BME280;58635;51.198;6.010;2022-11-25T10:07:49;101342.00;;;13.24;63.86
70976;BME280;58635;51.198;6.010;2022-11-25T10:10:26;101349.81;;;13.24;63.86
70976;BME280;58635;51.198;6.010;2022-11-25T10:12:56;101334.22;;;13.24;63.64
70976;BME280;58635;51.198;6.010;2022-11-25T10:15:26;101345.41;;;13.24;64.00
70976;BME280;58635;51.198;6.010;2022-11-25T10:18:00;101344.25;;;13.27;63.80
70976;BME280;58635;51.198;6.010;2022-11-25T10:20:34;101347.63;;;13.27;63.71
70976;BME280;58635;51.198;6.010;2022-11-25T10:25:52;101353.03;;;13.32;63.72
70976;BME280;58635;51.198;6.010;2022-11-25T10:28:28;101351.03;;;13.34;63.63
70976;BME280;58635;51.198;6.010;2022-11-25T10:33:51;101361.84;;;13.38;63.56
70976;BME280;58635;51.198;6.010;2022-11-25T10:36:20;101364.84;;;13.41;63.36
70976;BME280;58635;51.198;6.010;2022-11-25T10:38:55;101369.84;;;13.43;63.44
70976;BME280;58635;51.198;6.010;2022-11-25T10:41:25;101362.03;;;13.43;63.29
70976;BME280;58635;51.198;6.010;2022-11-25T10:43:51;101374.63;;;13.46;63.33
70976;BME280;58635;51.198;6.010;2022-11-25T10:51:35;101380.44;;;13.48;63.03
70976;BME280;58635;51.198;6.010;2022-11-25T10:57:16;101384.63;;;13.49;62.96
70976;BME280;58635;51.198;6.010;2022-11-25T10:59:54;101387.84;;;13.51;63.09
70976;BME280;58635;51.198;6.010;2022-11-25T11:02:35;101387.84;;;13.51;63.38
70976;BME280;58635;51.198;6.010;2022-11-25T11:07:41;101399.44;;;13.55;62.87
70976;BME280;58635;51.198;6.010;2022-11-25T11:10:20;101400.25;;;13.56;63.11
70976;BME280;58635;51.198;6.010;2022-11-25T11:12:54;101401.03;;;13.56;62.95
70976;BME280;58635;51.198;6.010;2022-11-25T11:17:55;101398.03;;;13.59;62.96
70976;BME280;58635;51.198;6.010;2022-11-25T11:20:24;101407.25;;;13.62;62.88
70976;BME280;58635;51.198;6.010;2022-11-25T11:23:09;101424.06;;;13.66;62.61
70976;BME280;58635;51.198;6.010;2022-11-25T11:25:38;101423.06;;;13.67;62.61
70976;BME280;58635;51.198;6.010;2022-11-25T11:30:59;101427.66;;;13.71;62.47
70976;BME280;58635;51.198;6.010;2022-11-25T11:38:53;101435.66;;;13.83;62.10
70976;BME280;58635;51.198;6.010;2022-11-25T11:44:07;101437.28;;;13.91;61.84
70976;BME280;58635;51.198;6.010;2022-11-25T11:52:35;101440.88;;;13.96;61.52
70976;BME280;58635;51.198;6.010;2022-11-25T11:55:00;101440.88;;;13.96;61.42
70976;BME280;58635;51.198;6.010;2022-11-25T12:00:18;101445.91;;;13.98;61.14
70976;BME280;58635;51.198;6.010;2022-11-25T12:03:10;101449.09;;;14.00;60.94
70976;BME280;58635;51.198;6.010;2022-11-25T12:05:37;101452.28;;;14.02;61.01
70976;BME280;58635;51.198;6.010;2022-11-25T12:08:13;101452.69;;;14.05;60.86
70976;BME280;58635;51.198;6.010;2022-11-25T12:10:46;101459.28;;;14.08;60.82
70976;BME280;58635;51.198;6.010;2022-11-25T12:16:03;101473.50;;;14.12;60.47
70976;BME280;58635;51.198;6.010;2022-11-25T12:24:46;101472.50;;;14.26;60.16
70976;BME280;58635;51.198;6.010;2022-11-25T12:27:27;101479.69;;;14.31;60.05
70976;BME280;58635;51.198;6.010;2022-11-25T12:30:11;101482.53;;;14.36;60.01
70976;BME280;58635;51.198;6.010;2022-11-25T12:37:46;101485.56;;;14.46;59.66
70976;BME280;58635;51.198;6.010;2022-11-25T12:46:38;101489.97;;;14.46;59.12
70976;BME280;58635;51.198;6.010;2022-11-25T12:48:39;101493.75;;;14.50;59.24
70976;BME280;58635;51.198;6.010;2022-11-25T12:51:40;101489.72;;;14.54;58.71
70976;BME280;58635;51.198;6.010;2022-11-25T13:14:26;101525.78;;;14.70;57.88
70976;BME280;58635;51.198;6.010;2022-11-25T13:16:53;101530.19;;;14.70;57.76
70976;BME280;58635;51.198;6.010;2022-11-25T13:19:20;101533.97;;;14.74;57.63
70976;BME280;58635;51.198;6.010;2022-11-25T13:22:21;101533.97;;;14.74;57.43
70976;BME280;58635;51.198;6.010;2022-11-25T13:24:56;101545.19;;;14.74;57.53
70976;BME280;58635;51.198;6.010;2022-11-25T13:28:25;101552.38;;;14.79;57.50
70976;BME280;58635;51.198;6.010;2022-11-25T13:32:55;101561.81;;;14.86;57.47
70976;BME280;58635;51.198;6.010;2022-11-25T13:35:31;101566.22;;;14.93;57.28
70976;BME280;58635;51.198;6.010;2022-11-25T13:37:58;101566.81;;;14.95;57.37
70976;BME280;58635;51.198;6.010;2022-11-25T13:42:56;101571.78;;;15.03;57.29
70976;BME280;58635;51.198;6.010;2022-11-25T13:45:25;101571.00;;;15.09;57.12
70976;BME280;58635;51.198;6.010;2022-11-25T13:47:53;101580.00;;;15.13;57.08
70976;BME280;58635;51.198;6.010;2022-11-25T13:50:22;101579.41;;;15.17;56.98
70976;BME280;58635;51.198;6.010;2022-11-25T13:52:56;101580.00;;;15.19;56.96
70976;BME280;58635;51.198;6.010;2022-11-25T13:55:40;101574.56;;;15.21;57.05
70976;BME280;58635;51.198;6.010;2022-11-25T14:03:44;101587.78;;;15.26;56.45
70976;BME280;58635;51.198;6.010;2022-11-25T14:20:29;101597.03;;;15.22;56.47
70976;BME280;58635;51.198;6.010;2022-11-25T14:25:56;101602.06;;;15.17;56.35
70976;BME280;58635;51.198;6.010;2022-11-25T14:28:31;101605.03;;;15.14;56.26
70976;BME280;58635;51.198;6.010;2022-11-25T14:31:03;101607.47;;;15.09;56.25
70976;BME280;58635;51.198;6.010;2022-11-25T14:33:47;101612.28;;;15.05;56.31
70976;BME280;58635;51.198;6.010;2022-11-25T14:36:19;101609.06;;;15.03;56.34
70976;BME280;58635;51.198;6.010;2022-11-25T14:38:51;101610.28;;;15.01;56.53
70976;BME280;58635;51.198;6.010;2022-11-25T14:41:22;101620.69;;;15.01;56.69
70976;BME280;58635;51.198;6.010;2022-11-25T14:43:54;101622.50;;;15.00;56.41
70976;BME280;58635;51.198;6.010;2022-11-25T14:46:22;101627.72;;;15.00;56.52
70976;BME280;58635;51.198;6.010;2022-11-25T14:49:15;101635.31;;;15.02;56.68
70976;BME280;58635;51.198;6.010;2022-11-25T14:51:41;101635.13;;;15.03;56.64
70976;BME280;58635;51.198;6.010;2022-11-25T14:54:07;101645.38;;;15.05;56.69
70976;BME280;58635;51.198;6.010;2022-11-25T14:56:34;101645.38;;;15.05;56.26